Aérodrome :
LOGIN :

S'inscrire | Disclaimer

   EN    FR    IT 

 










Légende :    VFR   VFR Marginal   IFR   IFR Intensif   IFR Très Intensif
Visi : 
Plafond : 
>= 8 km
>= 3000ft
5 à 8 km
1000 à 3000 ft
1500m à 5 km
500 à 1000 ft
800 à 1500m
200 à 500 ft
< 800m
< 200 ft
Symboles :   Orages  Brouillard  Fortes neiges  Fortes précipitations  Vent > 20 kt
SIGMETs :   Divers  Orages  Givrage  Turbulence  Onde Orograph.  Cendres Volcan.






- Altitude de l'aérodrome : 353 ft
- Code IATA : ZAG


LDZA - Zagreb Pleso

DERNIER METAR :
  • 162030Z VRB02KT CAVOK 19/15 Q1012 NOSIG

METARs EXPIRÉS :
  • 162000Z 31003KT 260V010 CAVOK 19/16 Q1012 NOSIG
  • 161930Z 01003KT 340V060 CAVOK 20/15 Q1012 NOSIG
  • 161900Z 03005KT 350V080 CAVOK 21/16 Q1011 NOSIG
  • 161830Z 03006KT 360V080 CAVOK 22/15 Q1011 NOSIG
  • 161800Z 04006KT 340V110 CAVOK 24/15 Q1011 BECMG VRB02KT
  • 161730Z 05009KT 360V120 CAVOK 24/15 Q1011 BECMG VRB02KT
  • 161700Z 05011KT 350V100 CAVOK 26/17 Q1011 BECMG VRB02KT
  • 161630Z 13005KT 090V220 CAVOK 27/16 Q1010 NOSIG
  • 161600Z 16003KT 080V250 CAVOK 27/16 Q1010 NOSIG

TAF TAF LDZA
Valide du 16 à 18h jusqu'au 17 à 18h UTC


161725Z 1618/1718 25004KT CAVOK TX29/1714Z TN14/1703Z
PROB30
TEMPO 1618/1621 25007KT
PROB30
TEMPO 1702/1705 4000 MIFG BR
ATIS : +385 1 6-259-214



MET'MAP, la Météo Aéronautique d'un coup d'oeil ! - Copyright ORBIFLY Décembre 2007 - Disclaimer

ORBIFLY MET'MAP TEAM :

Programmation & Développement : Alexandra Zaïnal
Sur une idée originale de : Baudouin d'Aumeries
Soutien technique & logistique : Manuel Goepfert
Assistance : Marc-Olivier Méhu




SOURCES & CREDITS :

   NOAA